createdAt,value
2022-09-26T00:01:22.707Z,6.43
2022-09-26T00:03:54.834Z,6.45
2022-09-26T00:06:22.626Z,4.03
2022-09-26T00:08:50.756Z,4.80
2022-09-26T00:11:23.937Z,4.32
2022-09-26T00:14:00.015Z,6.50
2022-09-26T00:16:27.759Z,4.78
2022-09-26T00:18:56.348Z,6.07
2022-09-26T00:21:23.774Z,5.78
2022-09-26T00:23:51.742Z,6.70
2022-09-26T00:26:20.913Z,4.50
2022-09-26T00:28:48.126Z,6.50
2022-09-26T00:31:24.811Z,7.13
2022-09-26T00:33:52.147Z,4.72
2022-09-26T00:36:19.004Z,6.47
2022-09-26T00:38:46.522Z,5.70
2022-09-26T00:41:14.310Z,7.05
2022-09-26T00:43:51.373Z,4.25
2022-09-26T00:46:29.971Z,4.30
2022-09-26T00:49:35.929Z,6.50
2022-09-26T00:52:11.380Z,6.72
2022-09-26T00:54:45.314Z,5.60
2022-09-26T00:57:27.359Z,3.15
2022-09-26T01:00:01.431Z,4.10
2022-09-26T01:02:29.263Z,5.10
2022-09-26T01:04:57.593Z,5.57
2022-09-26T01:07:27.047Z,6.05
2022-09-26T01:09:55.266Z,9.55
2022-09-26T01:12:22.826Z,4.22
2022-09-26T01:14:53.662Z,8.40
2022-09-26T01:17:23.106Z,6.75
2022-09-26T01:19:50.425Z,4.00
2022-09-26T01:22:21.139Z,5.67
2022-09-26T01:25:06.638Z,5.32
2022-09-26T01:27:39.617Z,6.07
2022-09-26T01:30:16.229Z,6.18
2022-09-26T01:32:48.809Z,5.57
2022-09-26T01:35:38.542Z,5.53
2022-09-26T01:38:23.900Z,4.60
2022-09-26T01:40:59.338Z,6.22
2022-09-26T01:43:37.120Z,6.53
2022-09-26T01:46:20.315Z,6.45
2022-09-26T01:48:53.274Z,5.10
2022-09-26T01:51:33.443Z,5.15
2022-09-26T01:54:34.971Z,5.32
2022-09-26T01:57:07.286Z,6.18
2022-09-26T01:59:45.781Z,6.00
2022-09-26T02:02:26.150Z,6.40
2022-09-26T02:05:01.592Z,6.72
2022-09-26T02:07:55.829Z,7.95
2022-09-26T02:10:28.493Z,8.70
2022-09-26T02:12:59.843Z,7.70
2022-09-26T02:15:28.060Z,7.00
2022-09-26T02:18:11.650Z,6.50
2022-09-26T02:20:43.856Z,5.22
2022-09-26T02:23:10.653Z,5.45
2022-09-26T02:25:37.608Z,5.35
2022-09-26T02:28:05.456Z,7.10
2022-09-26T02:30:32.266Z,4.20
2022-09-26T02:32:59.677Z,6.05
2022-09-26T02:35:46.270Z,8.45
2022-09-26T02:38:13.030Z,6.85
2022-09-26T02:40:52.586Z,7.43
2022-09-26T02:43:29.338Z,6.10
2022-09-26T02:46:18.239Z,5.32
2022-09-26T02:48:54.222Z,5.57
2022-09-26T02:51:45.154Z,7.35
2022-09-26T02:54:20.653Z,10.20
2022-09-26T02:56:53.706Z,9.35
2022-09-26T02:59:26.714Z,8.25
2022-09-26T03:02:15.854Z,7.70
2022-09-26T03:04:52.621Z,7.55
2022-09-26T03:07:33.372Z,9.20
2022-09-26T03:10:03.763Z,8.52
2022-09-26T03:12:32.970Z,9.15
2022-09-26T03:15:01.091Z,7.90
2022-09-26T03:22:25.491Z,8.57
2022-09-26T03:24:52.211Z,8.52
2022-09-26T03:27:19.152Z,8.98
2022-09-26T03:29:46.002Z,7.38
2022-09-26T03:32:12.830Z,7.97
2022-09-26T03:34:39.780Z,9.02
2022-09-26T03:37:07.164Z,8.15
2022-09-26T03:39:33.941Z,8.27
2022-09-26T03:42:02.016Z,7.00
2022-09-26T03:46:55.772Z,10.43
2022-09-26T03:49:22.587Z,7.78
2022-09-26T03:51:49.328Z,9.55
2022-09-26T03:54:16.608Z,7.13
2022-09-26T03:56:43.329Z,6.73
2022-09-26T03:59:10.037Z,6.80
2022-09-26T04:01:36.780Z,6.30
2022-09-26T04:04:03.564Z,9.07
2022-09-26T04:06:30.296Z,8.07
2022-09-26T04:08:57.287Z,6.85
2022-09-26T04:11:24.806Z,6.68
2022-09-26T04:13:53.803Z,7.53
2022-09-26T04:16:22.768Z,6.57
2022-09-26T04:18:50.812Z,7.28
2022-09-26T04:21:17.822Z,11.52
2022-09-26T04:23:45.344Z,6.70
2022-09-26T04:26:23.408Z,8.30
2022-09-26T04:28:55.346Z,4.55
2022-09-26T04:31:24.050Z,6.53
2022-09-26T04:33:51.585Z,6.75
2022-09-26T04:36:18.605Z,4.57
2022-09-26T04:38:45.342Z,5.30
2022-09-26T04:41:14.508Z,6.22
2022-09-26T04:43:41.561Z,6.82
2022-09-26T04:46:21.126Z,7.88
2022-09-26T04:48:50.440Z,7.55
2022-09-26T04:51:19.159Z,6.60
2022-09-26T04:53:46.416Z,5.15
2022-09-26T04:56:15.923Z,9.60
2022-09-26T04:58:44.185Z,4.97
2022-09-26T05:01:14.304Z,4.53
2022-09-26T05:03:41.956Z,4.05
2022-09-26T05:06:10.580Z,6.70
2022-09-26T05:08:39.473Z,4.22
2022-09-26T05:11:07.382Z,3.47
2022-09-26T05:13:34.229Z,3.72
2022-09-26T05:16:02.905Z,5.55
2022-09-26T05:18:30.051Z,4.93
2022-09-26T05:20:57.617Z,4.65
2022-09-26T05:23:45.512Z,4.25
2022-09-26T05:26:27.902Z,6.50
2022-09-26T05:28:56.895Z,5.32
2022-09-26T05:31:29.011Z,6.72
2022-09-26T05:33:58.977Z,4.90
2022-09-26T05:36:28.535Z,3.33
2022-09-26T05:38:55.265Z,5.88
2022-09-26T05:41:22.395Z,5.00
2022-09-26T05:43:49.092Z,4.03
2022-09-26T05:46:16.715Z,3.45
2022-09-26T05:48:43.493Z,4.43
2022-09-26T05:51:18.454Z,4.38
2022-09-26T05:53:46.646Z,3.85
2022-09-26T05:58:46.039Z,4.60
2022-09-26T06:01:15.813Z,4.13
2022-09-26T06:03:44.299Z,3.67
2022-09-26T06:06:16.106Z,3.85
2022-09-26T06:08:43.705Z,2.65
2022-09-26T06:11:13.868Z,3.53
2022-09-26T06:13:44.069Z,3.67
2022-09-26T06:16:14.471Z,4.18
2022-09-26T06:18:44.816Z,3.60
2022-09-26T06:21:13.890Z,4.20
2022-09-26T06:23:41.402Z,3.83
2022-09-26T06:26:10.169Z,4.43
2022-09-26T06:28:37.808Z,5.05
2022-09-26T06:31:13.354Z,4.80
2022-09-26T06:33:40.125Z,2.55
2022-09-26T06:36:09.483Z,4.70
2022-09-26T06:38:37.160Z,3.58
2022-09-26T06:41:04.916Z,3.75
2022-09-26T06:43:32.069Z,3.92
2022-09-26T06:45:59.252Z,5.32
2022-09-26T06:48:26.481Z,5.07
2022-09-26T06:50:55.005Z,4.67
2022-09-26T06:53:21.788Z,3.35
2022-09-26T06:55:49.086Z,3.15
2022-09-26T06:58:16.292Z,3.43
2022-09-26T07:00:43.676Z,3.53
2022-09-26T07:03:10.535Z,20.65
2022-09-26T07:05:37.702Z,7.03
2022-09-26T07:08:04.842Z,4.65
2022-09-26T07:10:36.057Z,8.05
2022-09-26T07:13:07.965Z,8.98
2022-09-26T07:15:36.941Z,6.70
2022-09-26T07:18:06.379Z,11.63
2022-09-26T07:20:36.445Z,9.68
2022-09-26T07:23:04.537Z,22.15
2022-09-26T07:25:32.197Z,15.23
2022-09-26T07:27:59.154Z,5.75
2022-09-26T07:30:26.586Z,11.57
2022-09-26T07:32:56.978Z,10.60
2022-09-26T07:35:24.907Z,7.82
2022-09-26T07:37:52.913Z,10.18
2022-09-26T07:40:22.726Z,10.80
2022-09-26T07:43:09.576Z,8.70
2022-09-26T07:45:56.910Z,5.32
2022-09-26T07:48:42.454Z,8.65
2022-09-26T07:51:11.717Z,7.10
2022-09-26T07:53:41.227Z,8.43
2022-09-26T07:56:10.549Z,7.82
2022-09-26T07:58:42.534Z,18.60
2022-09-26T08:01:12.186Z,8.45
2022-09-26T08:03:40.242Z,20.33
2022-09-26T08:06:07.609Z,16.15
2022-09-26T08:08:35.060Z,18.63
2022-09-26T08:11:04.195Z,12.43
2022-09-26T08:13:32.756Z,9.73
2022-09-26T08:18:32.399Z,5.05
2022-09-26T08:23:26.262Z,3.40
2022-09-26T08:25:53.023Z,6.32
2022-09-26T08:28:19.754Z,5.63
2022-09-26T08:30:46.664Z,6.88
2022-09-26T08:33:14.311Z,7.35
2022-09-26T08:35:42.106Z,24.30
2022-09-26T08:38:10.102Z,9.43
2022-09-26T08:41:01.260Z,9.90
2022-09-26T08:43:39.658Z,18.30
2022-09-26T08:46:33.926Z,16.35
2022-09-26T08:49:32.890Z,6.25
2022-09-26T08:52:05.600Z,23.27
2022-09-26T08:54:40.445Z,10.48
2022-09-26T08:57:20.613Z,22.92
2022-09-26T08:59:49.074Z,6.38
2022-09-26T09:02:33.644Z,13.23
2022-09-26T09:05:11.405Z,17.20
2022-09-26T09:07:41.128Z,12.30
2022-09-26T09:10:17.933Z,402.27
2022-09-26T09:13:09.603Z,1553.80
2022-09-26T09:15:45.330Z,1999.90
2022-09-26T09:18:29.187Z,825.33
2022-09-26T09:21:07.793Z,429.77
2022-09-26T09:23:43.767Z,249.10
2022-09-26T09:29:34.087Z,107.72
2022-09-26T09:32:03.361Z,39.20
2022-09-26T09:34:39.902Z,46.30
2022-09-26T09:37:21.992Z,309.40
2022-09-26T09:39:50.457Z,529.42
2022-09-26T09:42:28.060Z,423.13
2022-09-26T09:45:06.560Z,345.75
2022-09-26T09:47:39.279Z,112.95
2022-09-26T09:50:26.849Z,165.88
2022-09-26T09:53:06.333Z,119.45
2022-09-26T09:55:46.841Z,169.30
2022-09-26T09:58:25.775Z,48.15
2022-09-26T10:01:18.948Z,127.32
2022-09-26T10:04:12.966Z,256.58
2022-09-26T10:06:44.098Z,69.90
2022-09-26T10:09:38.916Z,45.08
2022-09-26T10:12:19.061Z,12.60
2022-09-26T10:14:56.502Z,14.35
2022-09-26T10:17:24.231Z,9.52
2022-09-26T10:19:51.623Z,10.43
2022-09-26T10:22:38.644Z,5.35
2022-09-26T10:25:18.383Z,5.13
2022-09-26T10:27:51.656Z,6.13
2022-09-26T10:30:21.521Z,4.93
2022-09-26T10:32:56.458Z,22.67
2022-09-26T10:35:26.257Z,7.00
2022-09-26T10:37:58.817Z,7.93
2022-09-26T10:40:47.595Z,6.88
2022-09-26T10:43:33.953Z,46.50
2022-09-26T10:46:19.034Z,54.53
2022-09-26T10:48:56.315Z,100.15
2022-09-26T10:51:29.839Z,110.67
2022-09-26T10:54:04.950Z,43.10
2022-09-26T10:56:38.809Z,66.20
2022-09-26T10:59:10.587Z,80.28
2022-09-26T11:01:44.750Z,104.13
2022-09-26T11:04:39.897Z,194.45
2022-09-26T11:07:10.363Z,164.20
2022-09-26T11:09:41.039Z,167.27
2022-09-26T11:12:27.334Z,77.95
2022-09-26T11:15:14.536Z,114.10
2022-09-26T11:17:52.960Z,66.00
2022-09-26T11:20:33.107Z,30.77
2022-09-26T11:23:17.593Z,23.55
2022-09-26T11:26:06.878Z,13.75
2022-09-26T11:28:39.147Z,11.15
2022-09-26T11:31:34.546Z,13.07
2022-09-26T11:34:04.759Z,25.23
2022-09-26T11:37:03.626Z,28.20
2022-09-26T11:39:51.052Z,8.90
2022-09-26T11:42:57.967Z,90.15
2022-09-26T11:45:39.213Z,92.95
2022-09-26T11:48:16.585Z,28.90
2022-09-26T11:51:19.822Z,18.60
2022-09-26T11:54:23.544Z,14.45
2022-09-26T11:57:03.123Z,19.00
2022-09-26T11:59:38.248Z,9.18
2022-09-26T12:02:41.880Z,12.10
2022-09-26T12:05:30.154Z,7.60
2022-09-26T12:08:23.044Z,9.50
2022-09-26T12:11:05.905Z,8.45
2022-09-26T12:13:52.477Z,8.48
2022-09-26T12:16:45.695Z,3.75
2022-09-26T12:19:23.505Z,4.55
2022-09-26T12:22:30.059Z,6.40
2022-09-26T12:25:00.460Z,4.07
2022-09-26T12:27:53.336Z,6.40
2022-09-26T12:30:33.188Z,7.18
2022-09-26T12:33:27.719Z,3.80
2022-09-26T12:36:18.955Z,17.13
2022-09-26T12:39:30.686Z,14.18
2022-09-26T12:42:34.917Z,15.10
2022-09-26T12:45:22.805Z,11.43
2022-09-26T12:48:10.111Z,23.35
2022-09-26T12:51:03.351Z,16.02
2022-09-26T12:53:45.167Z,13.38
2022-09-26T12:56:33.862Z,8.10
2022-09-26T12:59:29.189Z,10.90
2022-09-26T13:02:10.007Z,8.52
2022-09-26T13:04:58.727Z,7.55
2022-09-26T13:07:38.626Z,5.05
2022-09-26T13:10:32.319Z,4.63
2022-09-26T13:13:18.131Z,13.48
2022-09-26T13:16:04.248Z,9.20
2022-09-26T13:18:56.049Z,25.92
2022-09-26T13:21:33.983Z,14.52
2022-09-26T13:24:09.233Z,6.57
2022-09-26T13:26:45.100Z,8.98
2022-09-26T13:29:33.417Z,6.93
2022-09-26T13:32:40.457Z,19.67
2022-09-26T13:35:22.945Z,5.90
2022-09-26T13:38:06.136Z,75.10
2022-09-26T13:40:43.803Z,76.47
2022-09-26T13:43:43.743Z,26.63
2022-09-26T13:46:27.050Z,15.75
2022-09-26T13:49:04.881Z,42.85
2022-09-26T13:51:49.411Z,63.97
2022-09-26T13:54:44.043Z,57.50
2022-09-26T13:57:35.594Z,51.40
2022-09-26T14:00:46.755Z,40.72
2022-09-26T14:03:13.964Z,50.78
2022-09-26T14:06:03.721Z,50.00
2022-09-26T14:08:53.444Z,24.70
2022-09-26T14:11:21.497Z,24.23
2022-09-26T14:14:08.939Z,23.27
2022-09-26T14:16:36.820Z,29.85
2022-09-26T14:19:11.088Z,36.53
2022-09-26T14:22:00.633Z,17.08
2022-09-26T14:24:41.610Z,17.50
2022-09-26T14:27:11.399Z,10.40
2022-09-26T14:29:46.688Z,14.68
2022-09-26T14:32:23.500Z,14.73
2022-09-26T14:34:59.350Z,12.00
2022-09-26T14:37:42.146Z,10.60
2022-09-26T14:40:34.162Z,12.65
2022-09-26T14:43:16.576Z,9.32
2022-09-26T14:45:53.196Z,9.00
2022-09-26T14:48:26.639Z,8.23
2022-09-26T14:50:56.728Z,8.63
2022-09-26T14:53:33.979Z,9.27
2022-09-26T14:56:11.459Z,6.45
2022-09-26T14:58:38.144Z,12.88
2022-09-26T15:01:18.921Z,5.28
2022-09-26T15:04:02.941Z,5.43
2022-09-26T15:06:35.559Z,4.35
2022-09-26T15:09:16.961Z,6.97
2022-09-26T15:11:47.812Z,6.78
2022-09-26T15:14:43.785Z,1.35
2022-09-26T15:17:19.701Z,5.22
2022-09-26T15:19:53.686Z,6.43
2022-09-26T15:22:23.742Z,10.02
2022-09-26T15:25:07.279Z,6.90
2022-09-26T15:27:34.394Z,4.10
2022-09-26T15:30:29.307Z,5.70
2022-09-26T15:32:57.801Z,8.63
2022-09-26T15:35:26.668Z,4.13
2022-09-26T15:38:08.550Z,3.53
2022-09-26T15:40:35.432Z,2.83
2022-09-26T15:43:20.339Z,1.67
2022-09-26T15:45:47.120Z,2.10
2022-09-26T15:48:19.929Z,1.02
2022-09-26T15:51:09.098Z,2.97
2022-09-26T15:53:41.458Z,3.30
2022-09-26T15:56:13.519Z,1.10
2022-09-26T15:58:48.366Z,3.03
2022-09-26T16:01:18.793Z,2.65
2022-09-26T16:04:05.359Z,3.63
2022-09-26T16:06:37.704Z,5.22
2022-09-26T16:09:25.040Z,1.60
2022-09-26T16:11:56.272Z,3.28
2022-09-26T16:14:30.091Z,3.38
2022-09-26T16:17:17.041Z,4.13
2022-09-26T16:19:50.031Z,1.47
2022-09-26T16:22:51.354Z,1.13
2022-09-26T16:25:22.710Z,1.15
2022-09-26T16:28:09.160Z,2.53
2022-09-26T16:30:50.713Z,3.05
2022-09-26T16:33:29.941Z,2.03
2022-09-26T16:36:04.108Z,1.25
2022-09-26T16:38:35.834Z,3.55
2022-09-26T16:41:56.483Z,4.20
2022-09-26T16:44:25.176Z,2.65
2022-09-26T16:46:55.737Z,2.65
2022-09-26T16:49:48.416Z,1.73
2022-09-26T16:52:25.180Z,2.05
2022-09-26T16:54:53.217Z,2.30
2022-09-26T16:57:24.176Z,2.15
2022-09-26T16:59:52.586Z,2.33
2022-09-26T17:02:20.324Z,2.22
2022-09-26T17:04:48.469Z,3.20
2022-09-26T17:09:43.945Z,4.97
2022-09-26T17:12:21.722Z,4.80
2022-09-26T17:14:51.992Z,2.40
2022-09-26T17:17:21.984Z,3.08
2022-09-26T17:19:56.774Z,5.18
2022-09-26T17:22:27.016Z,4.40
2022-09-26T17:27:28.742Z,2.67
2022-09-26T17:30:00.193Z,3.47
2022-09-26T17:32:33.149Z,4.38
2022-09-26T17:35:03.797Z,5.50
2022-09-26T17:37:30.564Z,3.70
2022-09-26T17:39:57.731Z,5.82
2022-09-26T17:42:25.265Z,4.90
2022-09-26T17:44:52.073Z,5.32
2022-09-26T17:47:19.548Z,5.65
2022-09-26T17:49:54.770Z,4.53
2022-09-26T17:52:25.861Z,6.47
2022-09-26T17:54:57.253Z,6.28
2022-09-26T17:57:27.928Z,6.75
2022-09-26T17:59:54.853Z,8.18
2022-09-26T18:02:31.470Z,7.90
2022-09-26T18:05:03.197Z,9.00
2022-09-26T18:07:41.539Z,6.15
2022-09-26T18:10:19.284Z,8.30
2022-09-26T18:12:56.628Z,7.35
2022-09-26T18:15:24.114Z,5.38
2022-09-26T18:17:51.586Z,6.68
2022-09-26T18:20:27.216Z,8.30
2022-09-26T18:22:56.220Z,6.80
2022-09-26T18:25:25.645Z,6.53
2022-09-26T18:27:54.743Z,6.95
2022-09-26T18:30:24.670Z,7.03
2022-09-26T18:32:56.223Z,6.40
2022-09-26T18:35:25.804Z,8.60
2022-09-26T18:37:57.352Z,6.55
2022-09-26T18:40:26.615Z,9.77
2022-09-26T18:42:57.190Z,11.00
2022-09-26T18:45:28.775Z,10.93
2022-09-26T18:47:56.077Z,8.93
2022-09-26T18:50:29.076Z,7.53
2022-09-26T18:52:55.916Z,9.60
2022-09-26T18:55:43.797Z,12.20
2022-09-26T19:01:06.296Z,10.88
2022-09-26T19:03:52.793Z,9.05
2022-09-26T19:06:44.456Z,7.75
2022-09-26T19:09:17.434Z,9.50
2022-09-26T19:11:44.726Z,11.73
2022-09-26T19:14:15.649Z,10.27
2022-09-26T19:16:47.125Z,9.55
2022-09-26T19:19:14.914Z,8.30
2022-09-26T19:21:54.887Z,8.85
2022-09-26T19:24:47.817Z,8.68
2022-09-26T19:27:29.438Z,8.65
2022-09-26T19:30:04.891Z,8.32
2022-09-26T19:32:42.297Z,11.60
2022-09-26T19:35:31.283Z,7.88
2022-09-26T19:37:59.534Z,6.25
2022-09-26T19:40:27.238Z,7.38
2022-09-26T19:42:55.142Z,10.52
2022-09-26T19:45:22.195Z,7.50
2022-09-26T19:47:54.475Z,6.38
2022-09-26T19:50:23.624Z,5.53
2022-09-26T19:52:55.595Z,6.78
2022-09-26T19:55:25.012Z,6.85
2022-09-26T19:57:53.575Z,6.72
2022-09-26T20:00:20.480Z,6.05
2022-09-26T20:02:51.540Z,8.68
2022-09-26T20:05:22.051Z,6.53
2022-09-26T20:07:48.937Z,4.55
2022-09-26T20:10:25.342Z,6.45
2022-09-26T20:12:52.342Z,4.88
2022-09-26T20:15:22.816Z,4.18
2022-09-26T20:17:50.834Z,7.90
2022-09-26T20:22:46.373Z,4.40
2022-09-26T20:25:26.977Z,5.95
2022-09-26T20:27:54.678Z,4.40
2022-09-26T20:30:40.360Z,3.75
2022-09-26T20:33:07.917Z,4.57
2022-09-26T20:35:39.926Z,4.15
2022-09-26T20:38:14.944Z,4.10
2022-09-26T20:40:41.952Z,4.70
2022-09-26T20:43:14.836Z,6.05
2022-09-26T20:45:43.962Z,5.47
2022-09-26T20:48:23.485Z,4.88
2022-09-26T20:50:51.228Z,4.07
2022-09-26T20:53:20.509Z,3.10
2022-09-26T20:55:48.252Z,3.60
2022-09-26T20:58:15.219Z,2.97
2022-09-26T21:00:43.255Z,3.75
2022-09-26T21:05:37.896Z,2.70
2022-09-26T21:08:13.827Z,2.60
2022-09-26T21:10:40.657Z,3.97
2022-09-26T21:13:09.324Z,2.58
2022-09-26T21:15:36.820Z,2.35
2022-09-26T21:18:05.858Z,3.03
2022-09-26T21:20:34.233Z,2.28
2022-09-26T21:23:02.389Z,2.78
2022-09-26T21:25:31.578Z,3.40
2022-09-26T21:28:02.330Z,1.88
2022-09-26T21:30:30.371Z,4.38
2022-09-26T21:32:58.976Z,4.40
2022-09-26T21:35:29.863Z,4.72
2022-09-26T21:37:58.599Z,4.80
2022-09-26T21:40:28.529Z,3.65
2022-09-26T21:43:00.288Z,2.40
2022-09-26T21:45:27.744Z,3.83
2022-09-26T21:47:57.128Z,2.92
2022-09-26T21:50:27.942Z,3.80
2022-09-26T21:53:05.406Z,3.40
2022-09-26T21:55:35.616Z,3.15
2022-09-26T21:58:13.240Z,2.65
2022-09-26T22:00:42.446Z,2.80
2022-09-26T22:03:09.288Z,4.03
2022-09-26T22:05:36.043Z,1.35
2022-09-26T22:08:03.407Z,3.72
2022-09-26T22:10:30.379Z,6.03
2022-09-26T22:12:57.258Z,2.72
2022-09-26T22:15:23.984Z,2.72
2022-09-26T22:17:50.729Z,2.75
2022-09-26T22:20:17.478Z,1.70
2022-09-26T22:22:44.193Z,2.50
2022-09-26T22:25:10.965Z,2.83
2022-09-26T22:27:38.103Z,2.65
2022-09-26T22:30:06.408Z,1.67
2022-09-26T22:32:33.150Z,1.80
2022-09-26T22:34:59.884Z,1.58
2022-09-26T22:37:26.640Z,2.30
2022-09-26T22:39:53.344Z,1.13
2022-09-26T22:42:20.046Z,4.70
2022-09-26T22:44:46.860Z,1.25
2022-09-26T22:47:13.558Z,2.22
2022-09-26T22:49:40.296Z,1.95
2022-09-26T22:52:07.023Z,2.35
2022-09-26T22:54:33.774Z,2.17
2022-09-26T22:57:00.618Z,2.05
2022-09-26T22:59:27.359Z,2.45
2022-09-26T23:01:56.378Z,2.95
2022-09-26T23:04:45.509Z,3.33
2022-09-26T23:07:13.492Z,3.20
2022-09-26T23:09:40.743Z,2.80
2022-09-26T23:12:07.742Z,2.93
2022-09-26T23:14:34.627Z,2.92
2022-09-26T23:17:01.537Z,2.40
2022-09-26T23:19:28.391Z,2.15
2022-09-26T23:21:55.117Z,3.85
2022-09-26T23:24:22.163Z,5.50
2022-09-26T23:26:48.892Z,5.30
2022-09-26T23:29:15.845Z,1.95
2022-09-26T23:31:42.723Z,1.70
2022-09-26T23:34:10.101Z,2.80
2022-09-26T23:36:36.788Z,3.13
2022-09-26T23:39:03.517Z,3.00
2022-09-26T23:41:30.279Z,3.17
2022-09-26T23:43:57.063Z,1.92
2022-09-26T23:46:24.320Z,2.33
2022-09-26T23:48:51.239Z,2.33
2022-09-26T23:51:18.053Z,2.00
2022-09-26T23:53:44.850Z,2.33
2022-09-26T23:56:14.050Z,3.28
2022-09-26T23:58:41.355Z,2.05
